createdAt,value
2018-06-03T00:00:15.681Z,26.50
2018-06-03T00:01:15.700Z,24.10
2018-06-03T00:02:15.667Z,24.10
2018-06-03T00:03:15.661Z,23.70
2018-06-03T00:04:15.656Z,22.30
2018-06-03T00:05:15.673Z,21.80
2018-06-03T00:06:15.643Z,22.20
2018-06-03T00:07:15.638Z,21.60
2018-06-03T00:08:15.655Z,21.90
2018-06-03T00:09:15.641Z,22.90
2018-06-03T00:10:15.614Z,21.20
2018-06-03T00:11:15.608Z,22.40
2018-06-03T00:12:15.601Z,23.00
2018-06-03T00:13:15.596Z,23.80
2018-06-03T00:14:15.593Z,27.40
2018-06-03T00:15:15.581Z,29.30
2018-06-03T00:16:15.574Z,31.20
2018-06-03T00:17:15.569Z,31.90
2018-06-03T00:18:15.560Z,33.50
2018-06-03T00:19:15.554Z,32.90
2018-06-03T00:20:15.548Z,32.90
2018-06-03T00:21:15.541Z,33.00
2018-06-03T00:22:15.535Z,32.40
2018-06-03T00:23:15.528Z,33.70
2018-06-03T00:24:15.521Z,33.10
2018-06-03T00:25:15.516Z,31.90
2018-06-03T00:26:15.546Z,29.00
2018-06-03T00:27:15.500Z,28.50
2018-06-03T00:28:15.494Z,29.00
2018-06-03T00:29:15.491Z,29.20
2018-06-03T00:30:15.481Z,28.30
2018-06-03T00:31:15.474Z,28.10
2018-06-03T00:32:15.468Z,29.00
2018-06-03T00:33:15.461Z,28.80
2018-06-03T00:34:15.454Z,28.20
2018-06-03T00:35:15.448Z,29.40
2018-06-03T00:36:15.441Z,28.80
2018-06-03T00:37:15.437Z,30.00
2018-06-03T00:38:15.428Z,29.70
2018-06-03T00:39:15.422Z,31.10
2018-06-03T00:40:15.414Z,30.70
2018-06-03T00:41:15.407Z,30.40
2018-06-03T00:42:15.399Z,30.20
2018-06-03T00:43:15.393Z,30.70
2018-06-03T00:44:15.387Z,31.00
2018-06-03T00:45:15.380Z,30.90
2018-06-03T00:46:15.574Z,30.20
2018-06-03T00:47:15.365Z,29.90
2018-06-03T00:48:15.359Z,30.30
2018-06-03T00:49:15.357Z,29.90
2018-06-03T00:50:15.379Z,30.10
2018-06-03T00:51:15.339Z,29.80
2018-06-03T00:52:15.333Z,31.00
2018-06-03T00:53:15.352Z,30.30
2018-06-03T00:54:15.318Z,31.70
2018-06-03T00:55:15.312Z,31.00
2018-06-03T00:56:15.306Z,29.90
2018-06-03T00:57:15.299Z,29.90
2018-06-03T00:58:15.295Z,29.10
2018-06-03T00:59:15.284Z,29.90
2018-06-03T01:00:15.279Z,30.30
2018-06-03T01:01:15.273Z,31.50
2018-06-03T01:02:15.264Z,32.40
2018-06-03T01:03:15.257Z,33.30
2018-06-03T01:04:15.251Z,35.00
2018-06-03T01:05:15.244Z,35.70
2018-06-03T01:06:15.237Z,35.20
2018-06-03T01:07:15.230Z,36.10
2018-06-03T01:08:15.224Z,35.60
2018-06-03T01:09:15.250Z,35.80
2018-06-03T01:10:15.209Z,38.40
2018-06-03T01:11:15.203Z,37.60
2018-06-03T01:12:15.197Z,36.30
2018-06-03T01:13:15.189Z,37.30
2018-06-03T01:14:15.185Z,36.10
2018-06-03T01:15:15.175Z,36.60
2018-06-03T01:16:15.168Z,37.10
2018-06-03T01:17:15.165Z,37.60
2018-06-03T01:18:15.154Z,38.70
2018-06-03T01:19:15.147Z,38.90
2018-06-03T01:20:15.145Z,40.30
2018-06-03T01:21:15.136Z,40.20
2018-06-03T01:22:15.128Z,39.40
2018-06-03T01:23:15.119Z,40.50
2018-06-03T01:24:15.113Z,41.30
2018-06-03T01:25:15.107Z,40.20
2018-06-03T01:26:15.098Z,42.10
2018-06-03T01:27:15.096Z,42.40
2018-06-03T01:28:15.085Z,42.40
2018-06-03T01:29:15.076Z,40.60
2018-06-03T01:30:15.070Z,43.00
2018-06-03T01:31:15.063Z,40.70
2018-06-03T01:32:15.054Z,40.80
2018-06-03T01:33:15.049Z,40.60
2018-06-03T01:34:15.041Z,41.10
2018-06-03T01:35:15.034Z,41.70
2018-06-03T01:36:15.027Z,40.40
2018-06-03T01:37:15.020Z,42.10
2018-06-03T01:38:15.011Z,41.10
2018-06-03T01:39:15.005Z,39.90
2018-06-03T01:40:14.997Z,39.30
2018-06-03T01:41:14.993Z,38.70
2018-06-03T01:42:14.982Z,38.50
2018-06-03T01:43:14.977Z,37.30
2018-06-03T01:44:14.969Z,37.20
2018-06-03T01:45:14.962Z,37.30
2018-06-03T01:46:15.153Z,37.50
2018-06-03T01:47:14.946Z,37.50
2018-06-03T01:48:14.939Z,37.70
2018-06-03T01:49:14.932Z,37.10
2018-06-03T01:50:14.924Z,37.60
2018-06-03T01:51:14.918Z,37.40
2018-06-03T01:52:14.909Z,37.40
2018-06-03T01:53:14.901Z,37.30
2018-06-03T01:54:14.894Z,35.40
2018-06-03T01:55:14.887Z,36.40
2018-06-03T01:56:14.879Z,35.40
2018-06-03T01:57:14.872Z,35.30
2018-06-03T01:58:14.864Z,37.80
2018-06-03T01:59:14.860Z,37.10
2018-06-03T02:00:14.849Z,37.30
2018-06-03T02:01:14.843Z,38.20
2018-06-03T02:02:14.834Z,38.10
2018-06-03T02:03:14.826Z,40.40
2018-06-03T02:04:14.819Z,42.90
2018-06-03T02:05:14.811Z,41.80
2018-06-03T02:06:14.807Z,42.10
2018-06-03T02:07:14.795Z,41.80
2018-06-03T02:08:14.788Z,42.40
2018-06-03T02:09:14.780Z,42.00
2018-06-03T02:10:14.772Z,42.00
2018-06-03T02:11:14.764Z,41.00
2018-06-03T02:12:14.757Z,40.70
2018-06-03T02:13:14.748Z,41.70
2018-06-03T02:14:14.740Z,41.70
2018-06-03T02:15:14.732Z,41.00
2018-06-03T02:16:14.725Z,41.70
2018-06-03T02:17:14.716Z,41.50
2018-06-03T02:18:14.707Z,39.70
2018-06-03T02:19:14.701Z,40.50
2018-06-03T02:20:14.693Z,41.60
2018-06-03T02:21:14.685Z,42.10
2018-06-03T02:22:14.692Z,40.80
2018-06-03T02:23:14.670Z,41.30
2018-06-03T02:24:14.661Z,41.40
2018-06-03T02:25:14.653Z,42.20
2018-06-03T02:26:14.644Z,42.70
2018-06-03T02:27:14.637Z,41.20
2018-06-03T02:28:14.631Z,41.80
2018-06-03T02:29:14.623Z,42.50
2018-06-03T02:30:14.615Z,42.30
2018-06-03T02:31:14.607Z,41.10
2018-06-03T02:32:14.599Z,40.00
2018-06-03T02:33:14.592Z,42.20
2018-06-03T02:34:14.582Z,41.70
2018-06-03T02:35:14.575Z,41.00
2018-06-03T02:36:14.568Z,40.80
2018-06-03T02:37:14.562Z,42.10
2018-06-03T02:38:14.556Z,42.30
2018-06-03T02:39:14.542Z,43.40
2018-06-03T02:40:14.539Z,41.50
2018-06-03T02:41:14.528Z,42.10
2018-06-03T02:42:14.519Z,43.60
2018-06-03T02:43:14.511Z,40.90
2018-06-03T02:44:14.503Z,44.10
2018-06-03T02:45:14.496Z,44.30
2018-06-03T02:46:14.487Z,42.80
2018-06-03T02:47:14.480Z,42.70
2018-06-03T02:48:14.475Z,43.10
2018-06-03T02:49:14.465Z,42.00
2018-06-03T02:50:14.456Z,44.30
2018-06-03T02:51:14.448Z,45.40
2018-06-03T02:52:14.440Z,44.10
2018-06-03T02:53:14.432Z,44.10
2018-06-03T02:54:14.423Z,45.30
2018-06-03T02:55:14.424Z,45.60
2018-06-03T02:56:14.406Z,45.80
2018-06-03T02:57:14.398Z,47.00
2018-06-03T02:58:14.391Z,46.90
2018-06-03T02:59:14.383Z,45.10
2018-06-03T03:00:14.380Z,45.40
2018-06-03T03:01:14.368Z,46.00
2018-06-03T03:02:14.359Z,46.10
2018-06-03T03:03:14.351Z,46.20
2018-06-03T03:04:14.343Z,45.10
2018-06-03T03:05:14.336Z,45.20
2018-06-03T03:06:14.326Z,45.50
2018-06-03T03:07:14.318Z,45.60
2018-06-03T03:08:14.310Z,43.80
2018-06-03T03:09:14.302Z,45.10
2018-06-03T03:10:14.294Z,44.30
2018-06-03T03:11:14.285Z,45.90
2018-06-03T03:12:14.278Z,44.20
2018-06-03T03:13:14.270Z,43.60
2018-06-03T03:14:14.265Z,44.60
2018-06-03T03:15:14.254Z,42.90
2018-06-03T03:16:14.246Z,42.10
2018-06-03T03:17:14.237Z,43.40
2018-06-03T03:18:14.227Z,43.40
2018-06-03T03:19:14.222Z,43.40
2018-06-03T03:20:14.224Z,42.80
2018-06-03T03:21:14.204Z,41.70
2018-06-03T03:22:14.196Z,43.30
2018-06-03T03:23:14.188Z,43.20
2018-06-03T03:24:14.184Z,42.10
2018-06-03T03:25:14.174Z,43.00
2018-06-03T03:26:14.165Z,44.30
2018-06-03T03:27:14.156Z,41.60
2018-06-03T03:28:14.149Z,42.40
2018-06-03T03:29:14.141Z,44.30
2018-06-03T03:30:14.133Z,42.50
2018-06-03T03:31:14.125Z,41.10
2018-06-03T03:32:14.117Z,41.70
2018-06-03T03:33:14.108Z,42.00
2018-06-03T03:34:14.101Z,42.10
2018-06-03T03:35:14.094Z,43.20
2018-06-03T03:36:14.085Z,42.90
2018-06-03T03:37:14.082Z,43.10
2018-06-03T03:38:14.072Z,42.90
2018-06-03T03:39:14.061Z,43.00
2018-06-03T03:40:14.052Z,43.20
2018-06-03T03:41:14.044Z,44.00
2018-06-03T03:42:14.036Z,43.20
2018-06-03T03:43:14.029Z,42.30
2018-06-03T03:44:14.020Z,44.80
2018-06-03T03:45:14.015Z,43.50
2018-06-03T03:46:14.203Z,43.20
2018-06-03T03:47:13.996Z,42.90
2018-06-03T03:48:13.988Z,43.80
2018-06-03T03:49:13.980Z,44.10
2018-06-03T03:50:13.972Z,44.40
2018-06-03T03:51:13.963Z,44.20
2018-06-03T03:52:13.955Z,44.30
2018-06-03T03:53:13.948Z,46.30
2018-06-03T03:54:13.939Z,45.00
2018-06-03T03:55:13.931Z,43.90
2018-06-03T03:56:13.923Z,45.60
2018-06-03T03:57:13.915Z,44.20
2018-06-03T03:58:13.905Z,44.00
2018-06-03T03:59:13.900Z,44.80
2018-06-03T04:00:13.892Z,44.90
2018-06-03T04:01:13.883Z,43.30
2018-06-03T04:02:13.874Z,44.20
2018-06-03T04:03:13.866Z,44.30
2018-06-03T04:04:13.858Z,43.40
2018-06-03T04:05:13.849Z,42.00
2018-06-03T04:06:13.840Z,42.30
2018-06-03T04:07:13.834Z,42.80
2018-06-03T04:08:13.829Z,43.20
2018-06-03T04:09:13.817Z,41.90
2018-06-03T04:10:13.810Z,45.10
2018-06-03T04:11:13.800Z,45.10
2018-06-03T04:12:13.792Z,43.60
2018-06-03T04:13:13.788Z,42.70
2018-06-03T04:14:13.775Z,43.00
2018-06-03T04:15:13.769Z,44.60
2018-06-03T04:16:13.759Z,43.90
2018-06-03T04:17:13.752Z,45.30
2018-06-03T04:18:13.742Z,45.60
2018-06-03T04:19:13.734Z,45.20
2018-06-03T04:20:13.726Z,44.70
2018-06-03T04:21:13.719Z,44.50
2018-06-03T04:22:13.708Z,45.60
2018-06-03T04:23:13.702Z,46.70
2018-06-03T04:24:13.693Z,45.70
2018-06-03T04:25:13.684Z,45.80
2018-06-03T04:26:13.675Z,46.30
2018-06-03T04:27:13.667Z,47.30
2018-06-03T04:28:13.659Z,46.20
2018-06-03T04:29:13.649Z,45.10
2018-06-03T04:30:13.641Z,45.70
2018-06-03T04:31:13.633Z,44.40
2018-06-03T04:32:13.625Z,45.40
2018-06-03T04:33:13.616Z,45.30
2018-06-03T04:34:13.609Z,44.80
2018-06-03T04:35:13.602Z,42.40
2018-06-03T04:36:13.590Z,42.70
2018-06-03T04:37:13.582Z,42.50
2018-06-03T04:38:13.571Z,41.20
2018-06-03T04:39:13.565Z,42.10
2018-06-03T04:40:13.562Z,41.50
2018-06-03T04:41:13.550Z,40.50
2018-06-03T04:42:13.541Z,39.40
2018-06-03T04:43:13.567Z,39.50
2018-06-03T04:44:13.522Z,40.80
2018-06-03T04:45:13.514Z,40.20
2018-06-03T04:46:13.504Z,39.90
2018-06-03T04:47:13.496Z,39.50
2018-06-03T04:48:13.487Z,40.10
2018-06-03T04:49:13.479Z,39.10
2018-06-03T04:50:13.470Z,40.70
2018-06-03T04:51:13.461Z,38.80
2018-06-03T04:52:13.453Z,37.90
2018-06-03T04:53:13.448Z,36.90
2018-06-03T04:54:13.435Z,35.10
2018-06-03T04:55:13.430Z,36.30
2018-06-03T04:56:13.418Z,35.50
2018-06-03T04:57:13.410Z,35.40
2018-06-03T04:58:13.401Z,35.40
2018-06-03T04:59:13.392Z,33.40
2018-06-03T05:00:13.384Z,32.90
2018-06-03T05:01:13.375Z,34.20
2018-06-03T05:02:13.365Z,32.10
2018-06-03T05:03:13.356Z,32.70
2018-06-03T05:04:13.348Z,31.70
2018-06-03T05:05:13.339Z,31.90
2018-06-03T05:06:13.327Z,29.60
2018-06-03T05:07:13.320Z,30.90
2018-06-03T05:08:13.312Z,29.40
2018-06-03T05:09:13.303Z,29.50
2018-06-03T05:10:13.293Z,30.30
2018-06-03T05:11:13.285Z,29.30
2018-06-03T05:12:13.276Z,30.00
2018-06-03T05:13:13.267Z,30.30
2018-06-03T05:14:13.257Z,29.20
2018-06-03T05:15:13.248Z,30.40
2018-06-03T05:16:13.241Z,27.80
2018-06-03T05:17:13.232Z,28.60
2018-06-03T05:18:13.222Z,28.30
2018-06-03T05:19:13.214Z,28.50
2018-06-03T05:20:13.205Z,28.30
2018-06-03T05:21:13.200Z,27.70
2018-06-03T05:22:13.187Z,28.00
2018-06-03T05:23:13.178Z,28.20
2018-06-03T05:24:13.171Z,27.10
2018-06-03T05:25:13.161Z,27.30
2018-06-03T05:26:13.152Z,28.60
2018-06-03T05:27:13.144Z,28.50
2018-06-03T05:28:13.136Z,28.30
2018-06-03T05:29:13.127Z,27.60
2018-06-03T05:30:13.118Z,29.40
2018-06-03T05:31:13.108Z,30.10
2018-06-03T05:32:13.101Z,28.90
2018-06-03T05:33:13.096Z,29.00
2018-06-03T05:34:13.083Z,27.50
2018-06-03T05:35:13.075Z,28.00
2018-06-03T05:36:13.068Z,28.20
2018-06-03T05:37:13.057Z,28.30
2018-06-03T05:38:13.051Z,28.20
2018-06-03T05:39:13.040Z,26.50
2018-06-03T05:40:13.035Z,26.40
2018-06-03T05:41:13.024Z,28.00
2018-06-03T05:42:13.013Z,26.70
2018-06-03T05:43:13.006Z,27.10
2018-06-03T05:44:13.001Z,28.10
2018-06-03T05:45:12.989Z,27.70
2018-06-03T05:46:13.180Z,26.80
2018-06-03T05:47:12.970Z,27.80
2018-06-03T05:48:12.963Z,27.10
2018-06-03T05:49:12.955Z,25.80
2018-06-03T05:50:12.946Z,26.00
2018-06-03T05:51:12.940Z,25.70
2018-06-03T05:52:13.129Z,25.30
2018-06-03T05:53:12.920Z,26.50
2018-06-03T05:54:12.911Z,25.30
2018-06-03T05:55:12.903Z,25.20
2018-06-03T05:56:12.895Z,25.40
2018-06-03T05:57:12.886Z,24.00
2018-06-03T05:58:12.877Z,25.00
2018-06-03T05:59:12.867Z,24.30
2018-06-03T06:00:12.858Z,24.80
2018-06-03T06:01:12.852Z,23.60
2018-06-03T06:02:12.842Z,23.60
2018-06-03T06:03:12.833Z,22.70
2018-06-03T06:04:13.025Z,23.10
2018-06-03T06:05:12.815Z,23.80
2018-06-03T06:06:12.808Z,23.20
2018-06-03T06:07:12.799Z,22.40
2018-06-03T06:08:12.791Z,22.70
2018-06-03T06:09:12.782Z,23.90
2018-06-03T06:10:12.773Z,22.90
2018-06-03T06:11:12.764Z,21.80
2018-06-03T06:12:12.755Z,21.60
2018-06-03T06:13:12.749Z,21.20
2018-06-03T06:14:12.738Z,21.60
2018-06-03T06:15:12.730Z,21.60
2018-06-03T06:16:12.923Z,21.70
2018-06-03T06:17:12.713Z,20.70
2018-06-03T06:18:12.704Z,20.70
2018-06-03T06:19:12.695Z,19.40
2018-06-03T06:20:12.695Z,18.40
2018-06-03T06:21:12.679Z,18.30
2018-06-03T06:22:12.668Z,19.40
2018-06-03T06:23:12.659Z,19.60
2018-06-03T06:24:12.655Z,18.50
2018-06-03T06:25:12.643Z,18.90
2018-06-03T06:26:12.633Z,18.00
2018-06-03T06:27:12.625Z,17.40
2018-06-03T06:28:12.616Z,18.80
2018-06-03T06:29:12.606Z,17.90
2018-06-03T06:30:12.597Z,18.10
2018-06-03T06:31:12.586Z,18.00
2018-06-03T06:32:12.578Z,16.90
2018-06-03T06:33:12.568Z,17.20
2018-06-03T06:34:12.560Z,18.00
2018-06-03T06:35:12.551Z,17.30
2018-06-03T06:36:12.543Z,17.40
2018-06-03T06:37:12.535Z,16.90
2018-06-03T06:38:12.525Z,16.70
2018-06-03T06:39:12.520Z,17.40
2018-06-03T06:40:12.513Z,17.20
2018-06-03T06:41:12.500Z,16.60
2018-06-03T06:42:12.490Z,16.90
2018-06-03T06:43:12.482Z,16.10
2018-06-03T06:44:12.473Z,15.70
2018-06-03T06:45:12.464Z,15.70
2018-06-03T06:46:12.456Z,15.60
2018-06-03T06:47:12.448Z,15.40
2018-06-03T06:48:12.439Z,16.50
2018-06-03T06:49:12.431Z,15.20
2018-06-03T06:50:12.422Z,15.20
2018-06-03T06:51:12.413Z,15.00
2018-06-03T06:52:12.613Z,15.90
2018-06-03T06:53:12.397Z,16.20
2018-06-03T06:54:12.390Z,16.30
2018-06-03T06:55:12.382Z,17.10
2018-06-03T06:56:12.370Z,15.90
2018-06-03T06:57:12.363Z,16.40
2018-06-03T06:58:12.353Z,16.70
2018-06-03T06:59:12.343Z,15.60
2018-06-03T07:00:12.388Z,15.30
2018-06-03T07:01:12.327Z,15.10
2018-06-03T07:02:12.321Z,15.70
2018-06-03T07:03:12.310Z,15.20
2018-06-03T07:04:12.304Z,14.10
2018-06-03T07:05:12.295Z,14.60
2018-06-03T07:06:12.286Z,14.40
2018-06-03T07:07:12.278Z,14.20
2018-06-03T07:08:12.270Z,12.60
2018-06-03T07:09:12.260Z,13.20
2018-06-03T07:10:12.252Z,13.80
2018-06-03T07:11:12.243Z,13.20
2018-06-03T07:12:12.237Z,13.60
2018-06-03T07:13:12.270Z,13.20
2018-06-03T07:14:12.218Z,14.00
2018-06-03T07:15:12.210Z,13.60
2018-06-03T07:16:12.201Z,13.40
2018-06-03T07:17:12.191Z,13.50
2018-06-03T07:18:12.184Z,12.60
2018-06-03T07:19:12.175Z,13.50
2018-06-03T07:20:12.167Z,13.60
2018-06-03T07:21:12.159Z,13.50
2018-06-03T07:22:12.148Z,12.60
2018-06-03T07:23:12.190Z,13.30
2018-06-03T07:24:12.137Z,14.00
2018-06-03T07:25:12.129Z,14.40
2018-06-03T07:26:12.115Z,13.30
2018-06-03T07:27:12.106Z,13.80
2018-06-03T07:28:12.297Z,13.00
2018-06-03T07:29:12.090Z,13.30
2018-06-03T07:30:12.080Z,13.00
2018-06-03T07:31:12.072Z,12.30
2018-06-03T07:32:12.064Z,12.30
2018-06-03T07:33:12.061Z,13.10
2018-06-03T07:34:12.045Z,13.50
2018-06-03T07:35:12.037Z,13.00
2018-06-03T07:36:12.029Z,12.90
2018-06-03T07:37:12.020Z,13.40
2018-06-03T07:38:12.037Z,13.10
2018-06-03T07:39:12.002Z,13.10
2018-06-03T07:40:11.994Z,13.60
2018-06-03T07:41:11.986Z,15.80
2018-06-03T07:42:11.975Z,15.30
2018-06-03T07:43:11.968Z,17.00
2018-06-03T07:44:11.959Z,15.30
2018-06-03T07:45:11.959Z,14.70
2018-06-03T07:46:11.943Z,12.30
2018-06-03T07:47:11.933Z,12.00
2018-06-03T07:48:11.925Z,12.80
2018-06-03T07:49:11.915Z,14.50
2018-06-03T07:50:11.907Z,13.00
2018-06-03T07:51:11.898Z,13.20
2018-06-03T07:52:11.890Z,12.60
2018-06-03T07:53:11.885Z,12.90
2018-06-03T07:54:11.870Z,12.70
2018-06-03T07:55:11.864Z,12.00
2018-06-03T07:56:11.852Z,12.70
2018-06-03T07:57:11.843Z,12.80
2018-06-03T07:58:12.033Z,12.80
2018-06-03T07:59:11.825Z,11.20
2018-06-03T08:00:11.814Z,8.60
2018-06-03T08:01:11.805Z,9.50
2018-06-03T08:02:11.795Z,9.10
2018-06-03T08:03:11.787Z,7.90
2018-06-03T08:04:11.778Z,7.10
2018-06-03T08:05:11.776Z,7.00
2018-06-03T08:06:11.763Z,6.90
2018-06-03T08:07:11.751Z,6.30
2018-06-03T08:08:11.746Z,6.40
2018-06-03T08:09:11.734Z,5.70
2018-06-03T08:10:11.723Z,5.30
2018-06-03T08:11:11.715Z,5.60
2018-06-03T08:12:11.706Z,5.10
2018-06-03T08:13:11.698Z,4.20
2018-06-03T08:14:11.688Z,4.10
2018-06-03T08:15:11.679Z,4.00
2018-06-03T08:16:11.875Z,4.40
2018-06-03T08:17:11.660Z,4.10
2018-06-03T08:18:11.652Z,4.40
2018-06-03T08:19:11.643Z,4.50
2018-06-03T08:20:11.635Z,3.50
2018-06-03T08:21:11.636Z,3.20
2018-06-03T08:22:11.821Z,2.30
2018-06-03T08:23:11.605Z,1.90
2018-06-03T08:24:11.601Z,1.50
2018-06-03T08:25:11.589Z,1.40
2018-06-03T08:26:11.580Z,1.50
2018-06-03T08:27:11.569Z,1.10
2018-06-03T08:28:11.561Z,1.40
2018-06-03T08:29:11.551Z,1.20
2018-06-03T08:30:11.542Z,1.10
2018-06-03T08:31:11.532Z,1.20
2018-06-03T08:32:11.526Z,1.10
2018-06-03T08:33:11.513Z,1.00
2018-06-03T08:34:11.504Z,0.90
2018-06-03T08:35:11.496Z,0.80
2018-06-03T08:36:11.486Z,0.80
2018-06-03T08:37:11.478Z,0.60
2018-06-03T08:38:11.466Z,0.70
2018-06-03T08:39:11.508Z,0.60
2018-06-03T08:40:11.450Z,0.60
2018-06-03T08:41:11.441Z,0.60
2018-06-03T08:42:11.430Z,0.60
2018-06-03T08:43:11.424Z,0.50
2018-06-03T08:44:11.413Z,0.60
2018-06-03T08:45:11.404Z,0.60
2018-06-03T08:46:11.393Z,0.50
2018-06-03T08:47:11.385Z,0.60
2018-06-03T08:48:11.375Z,0.50
2018-06-03T08:49:11.370Z,0.50
2018-06-03T08:50:11.358Z,0.50
2018-06-03T08:51:11.348Z,0.40
2018-06-03T08:52:11.594Z,0.40
2018-06-03T08:53:11.330Z,0.40
2018-06-03T08:54:11.320Z,0.50
2018-06-03T08:55:11.311Z,0.50
2018-06-03T08:56:11.302Z,0.40
2018-06-03T08:57:11.296Z,0.40
2018-06-03T08:58:11.282Z,0.50
2018-06-03T08:59:11.271Z,0.50
2018-06-03T09:00:11.263Z,0.40
2018-06-03T09:01:11.254Z,0.40
2018-06-03T09:02:11.245Z,0.40
2018-06-03T09:03:11.235Z,0.40
2018-06-03T09:04:11.225Z,0.50
2018-06-03T09:05:11.215Z,0.50
2018-06-03T09:06:11.205Z,0.50
2018-06-03T09:07:11.195Z,0.40
2018-06-03T09:08:11.186Z,0.40
2018-06-03T09:09:11.177Z,0.40
2018-06-03T09:10:11.166Z,0.40
2018-06-03T09:11:11.157Z,0.50
2018-06-03T09:12:11.147Z,0.40
2018-06-03T09:13:11.153Z,0.60
2018-06-03T09:14:11.125Z,0.40
2018-06-03T09:15:11.117Z,0.50
2018-06-03T09:16:11.308Z,0.50
2018-06-03T09:17:11.098Z,0.50
2018-06-03T09:18:11.086Z,0.40
2018-06-03T09:19:11.078Z,0.50
2018-06-03T09:20:11.071Z,0.40
2018-06-03T09:21:11.109Z,0.50
2018-06-03T09:22:11.047Z,0.40
2018-06-03T09:23:11.038Z,0.40
2018-06-03T09:24:11.028Z,0.50
2018-06-03T09:25:11.069Z,0.50
2018-06-03T09:26:11.009Z,0.50
2018-06-03T09:27:11.003Z,0.50
2018-06-03T09:28:11.189Z,0.50
2018-06-03T09:29:10.981Z,0.50
2018-06-03T09:30:10.970Z,0.50
2018-06-03T09:31:10.961Z,0.40
2018-06-03T09:32:10.951Z,0.40
2018-06-03T09:33:10.942Z,0.40
2018-06-03T09:34:10.936Z,0.50
2018-06-03T09:35:10.921Z,0.40
2018-06-03T09:36:10.911Z,0.50
2018-06-03T09:37:10.902Z,0.40
2018-06-03T09:38:10.892Z,0.50
2018-06-03T09:39:10.882Z,0.40
2018-06-03T09:40:10.871Z,0.50
2018-06-03T09:41:10.862Z,0.50
2018-06-03T09:42:10.851Z,0.50
2018-06-03T09:43:10.842Z,0.50
2018-06-03T09:44:10.833Z,0.60
2018-06-03T09:45:10.823Z,0.50
2018-06-03T09:46:10.812Z,0.50
2018-06-03T09:47:10.804Z,0.50
2018-06-03T09:48:10.793Z,0.60
2018-06-03T09:49:10.784Z,0.50
2018-06-03T09:50:10.773Z,0.50
2018-06-03T09:51:10.767Z,0.50
2018-06-03T09:52:10.753Z,0.50
2018-06-03T09:53:10.776Z,0.60
2018-06-03T09:54:10.735Z,0.50
2018-06-03T09:55:10.723Z,0.50
2018-06-03T09:56:10.714Z,0.50
2018-06-03T09:57:10.702Z,0.50
2018-06-03T09:58:10.691Z,0.50
2018-06-03T09:59:10.683Z,0.50
2018-06-03T10:00:10.674Z,0.40
2018-06-03T10:01:10.664Z,0.50
2018-06-03T10:02:10.653Z,0.50
2018-06-03T10:03:10.646Z,0.50
2018-06-03T10:04:10.632Z,0.50
2018-06-03T10:05:10.623Z,0.50
2018-06-03T10:06:10.611Z,0.50
2018-06-03T10:07:10.602Z,0.50
2018-06-03T10:08:10.592Z,0.50
2018-06-03T10:09:10.583Z,0.50
2018-06-03T10:10:10.580Z,0.50
2018-06-03T10:11:10.561Z,0.50
2018-06-03T10:12:10.551Z,0.40
2018-06-03T10:13:10.542Z,0.50
2018-06-03T10:14:10.531Z,0.50
2018-06-03T10:15:10.521Z,0.50
2018-06-03T10:16:10.619Z,0.50
2018-06-03T10:17:10.500Z,0.40
2018-06-03T10:18:10.491Z,0.40
2018-06-03T10:19:10.480Z,0.50
2018-06-03T10:20:10.471Z,0.50
2018-06-03T10:21:10.465Z,0.40
2018-06-03T10:22:10.450Z,0.40
2018-06-03T10:23:10.438Z,0.40
2018-06-03T10:24:10.429Z,0.50
2018-06-03T10:25:10.419Z,0.50
2018-06-03T10:26:10.409Z,0.50
2018-06-03T10:27:10.399Z,0.40
2018-06-03T10:28:10.389Z,0.50
2018-06-03T10:29:10.385Z,0.50
2018-06-03T10:30:10.368Z,0.50
2018-06-03T10:31:10.357Z,0.50
2018-06-03T10:32:10.346Z,0.50
2018-06-03T10:33:10.337Z,0.50
2018-06-03T10:34:10.329Z,0.50
2018-06-03T10:35:10.316Z,0.50
2018-06-03T10:36:10.306Z,0.60
2018-06-03T10:37:10.296Z,0.50
2018-06-03T10:38:10.286Z,0.50
2018-06-03T10:39:10.276Z,0.50
2018-06-03T10:40:10.265Z,0.50
2018-06-03T10:41:10.255Z,0.60
2018-06-03T10:42:10.244Z,0.60
2018-06-03T10:43:10.234Z,0.60
2018-06-03T10:44:10.225Z,0.50
2018-06-03T10:45:10.214Z,0.50
2018-06-03T10:46:10.204Z,0.50
2018-06-03T10:47:10.192Z,0.50
2018-06-03T10:48:10.183Z,0.60
2018-06-03T10:49:10.173Z,0.60
2018-06-03T10:50:10.163Z,0.50
2018-06-03T10:51:10.153Z,0.50
2018-06-03T10:52:10.142Z,0.50
2018-06-03T10:53:10.132Z,0.50
2018-06-03T10:54:10.119Z,0.50
2018-06-03T10:55:10.110Z,0.50
2018-06-03T10:56:10.100Z,0.50
2018-06-03T10:57:10.091Z,0.50
2018-06-03T10:58:10.080Z,0.50
2018-06-03T10:59:10.069Z,0.60
2018-06-03T11:00:10.060Z,0.50
2018-06-03T11:01:10.048Z,0.50
2018-06-03T11:02:10.038Z,0.50
2018-06-03T11:03:10.027Z,0.60
2018-06-03T11:04:10.017Z,0.60
2018-06-03T11:05:10.007Z,0.50
2018-06-03T11:06:09.997Z,0.40
2018-06-03T11:07:09.987Z,0.40
2018-06-03T11:08:09.977Z,0.40
2018-06-03T11:09:09.966Z,0.50
2018-06-03T11:10:09.956Z,0.40
2018-06-03T11:11:09.947Z,0.40
2018-06-03T11:12:09.936Z,0.40
2018-06-03T11:13:09.927Z,0.50
2018-06-03T11:14:09.915Z,0.40
2018-06-03T11:15:09.905Z,0.40
2018-06-03T11:16:10.206Z,0.40
2018-06-03T11:17:09.885Z,0.50
2018-06-03T11:18:09.877Z,0.50
2018-06-03T11:19:09.864Z,0.40
2018-06-03T11:20:09.855Z,0.40
2018-06-03T11:21:09.845Z,0.50
2018-06-03T11:22:09.832Z,0.40
2018-06-03T11:23:09.824Z,0.50
2018-06-03T11:24:09.814Z,0.50
2018-06-03T11:25:09.810Z,0.50
2018-06-03T11:26:09.792Z,0.50
2018-06-03T11:27:09.791Z,0.50
2018-06-03T11:28:09.772Z,0.50
2018-06-03T11:29:09.763Z,0.40
2018-06-03T11:30:09.751Z,0.40
2018-06-03T11:31:09.741Z,0.40
2018-06-03T11:32:09.731Z,0.40
2018-06-03T11:33:09.720Z,0.40
2018-06-03T11:34:09.710Z,0.50
2018-06-03T11:35:09.699Z,0.50
2018-06-03T11:36:09.688Z,0.50
2018-06-03T11:37:09.678Z,0.50
2018-06-03T11:38:09.668Z,0.40
2018-06-03T11:39:09.657Z,0.50
2018-06-03T11:40:09.649Z,0.50
2018-06-03T11:41:09.638Z,0.50
2018-06-03T11:42:09.629Z,0.40
2018-06-03T11:43:09.618Z,0.40
2018-06-03T11:44:09.608Z,0.40
2018-06-03T11:45:09.597Z,0.40
2018-06-03T11:46:09.585Z,0.40
2018-06-03T11:47:09.575Z,0.40
2018-06-03T11:48:09.571Z,0.50
2018-06-03T11:49:09.557Z,0.50
2018-06-03T11:50:09.545Z,0.40
2018-06-03T11:51:09.535Z,0.40
2018-06-03T11:52:09.524Z,0.50
2018-06-03T11:53:09.514Z,0.50
2018-06-03T11:54:09.503Z,0.40
2018-06-03T11:55:09.493Z,0.40
2018-06-03T11:56:09.482Z,0.40
2018-06-03T11:57:09.473Z,0.40
2018-06-03T11:58:09.471Z,0.40
2018-06-03T11:59:09.481Z,0.40
2018-06-03T12:00:09.444Z,0.40
2018-06-03T12:01:09.432Z,0.50
2018-06-03T12:02:09.421Z,0.40
2018-06-03T12:03:09.412Z,0.50
2018-06-03T12:04:09.401Z,0.40
2018-06-03T12:05:09.392Z,0.40
2018-06-03T12:06:09.380Z,0.50
2018-06-03T12:07:09.371Z,0.40
2018-06-03T12:08:09.413Z,0.40
2018-06-03T12:09:09.355Z,0.40
2018-06-03T12:10:09.340Z,0.40
2018-06-03T12:11:09.331Z,0.40
2018-06-03T12:12:09.321Z,0.40
2018-06-03T12:13:09.312Z,0.40
2018-06-03T12:14:09.301Z,0.40
2018-06-03T12:15:09.292Z,0.40
2018-06-03T12:16:09.281Z,0.40
2018-06-03T12:17:09.271Z,0.50
2018-06-03T12:18:09.262Z,0.50
2018-06-03T12:19:09.250Z,0.40
2018-06-03T12:20:09.240Z,0.50
2018-06-03T12:21:09.235Z,0.40
2018-06-03T12:22:09.469Z,0.50
2018-06-03T12:23:09.209Z,0.50
2018-06-03T12:24:09.203Z,0.60
2018-06-03T12:25:09.190Z,0.50
2018-06-03T12:26:09.178Z,0.50
2018-06-03T12:27:09.168Z,0.40
2018-06-03T12:28:09.159Z,0.50
2018-06-03T12:29:09.151Z,0.50
2018-06-03T12:30:09.138Z,0.50
2018-06-03T12:31:09.130Z,0.50
2018-06-03T12:32:09.119Z,0.40
2018-06-03T12:33:09.109Z,0.50
2018-06-03T12:34:09.098Z,0.50
2018-06-03T12:35:09.086Z,0.50
2018-06-03T12:36:09.080Z,0.50
2018-06-03T12:37:09.070Z,0.50
2018-06-03T12:38:09.058Z,0.60
2018-06-03T12:39:09.047Z,0.60
2018-06-03T12:40:09.037Z,0.50
2018-06-03T12:41:09.032Z,0.50
2018-06-03T12:42:09.015Z,0.60
2018-06-03T12:43:09.007Z,0.50
2018-06-03T12:44:08.997Z,0.50
2018-06-03T12:45:08.990Z,0.50
2018-06-03T12:46:08.976Z,0.60
2018-06-03T12:47:08.972Z,0.60
2018-06-03T12:48:08.956Z,0.60
2018-06-03T12:49:08.945Z,0.60
2018-06-03T12:50:08.935Z,0.50
2018-06-03T12:51:08.925Z,0.60
2018-06-03T12:52:09.115Z,0.60
2018-06-03T12:53:08.905Z,0.70
2018-06-03T12:54:08.899Z,0.60
2018-06-03T12:55:08.884Z,0.60
2018-06-03T12:56:08.872Z,0.60
2018-06-03T12:57:08.864Z,0.60
2018-06-03T12:58:08.852Z,0.60
2018-06-03T12:59:08.842Z,0.50
2018-06-03T13:00:08.831Z,0.50
2018-06-03T13:01:08.822Z,0.60
2018-06-03T13:02:08.815Z,0.60